Terminal Aerodrome Forecast
Issued by NWS Riverton, WY

Home | Current Version | Previous Version | Text Only | Print | Product List | Glossary On
Versions: 1 2 3 4 5 6 7 8 9 10 11 12 13 14
963
FTUS45 KRIW 211124
TAFRIW
TAF
KRIW 211124Z 2112/2212 21015G25KT P6SM SCT100 BKN200 WS020/25040KT
     FM211700 23018G28KT P6SM SCT100 BKN150
     FM220000 24015KT P6SM BKN100
     FM220300 28014G24KT P6SM VCSH BKN070
     FM220800 28012KT P6SM BKN090=

USA.gov is the U.S. government's official web portal to all federal, state and local government web resources and services.